sensor_id;sensor_type;location;lat;lon;timestamp;pressure;altitude;pressure_sealevel;temperature;humidity
6668;BME280;3370;47.712;9.082;2023-05-23T00:02:05;96840.81;;;16.14;87.21
6668;BME280;3370;47.712;9.082;2023-05-23T00:04:34;96848.81;;;16.11;87.57
6668;BME280;3370;47.712;9.082;2023-05-23T00:07:02;96844.69;;;16.08;87.43
6668;BME280;3370;47.712;9.082;2023-05-23T00:09:28;96843.25;;;16.04;87.66
6668;BME280;3370;47.712;9.082;2023-05-23T00:11:54;96849.13;;;16.19;85.59
6668;BME280;3370;47.712;9.082;2023-05-23T00:14:19;96853.75;;;16.27;85.77
6668;BME280;3370;47.712;9.082;2023-05-23T00:16:46;96853.34;;;16.20;85.91
6668;BME280;3370;47.712;9.082;2023-05-23T00:19:15;96851.13;;;16.03;87.05
6668;BME280;3370;47.712;9.082;2023-05-23T00:21:46;96855.81;;;15.72;88.80
6668;BME280;3370;47.712;9.082;2023-05-23T00:24:21;96854.69;;;15.63;90.29
6668;BME280;3370;47.712;9.082;2023-05-23T00:26:47;96855.50;;;15.64;90.14
6668;BME280;3370;47.712;9.082;2023-05-23T00:29:13;96860.78;;;15.62;90.36
6668;BME280;3370;47.712;9.082;2023-05-23T00:31:44;96854.78;;;15.62;90.55
6668;BME280;3370;47.712;9.082;2023-05-23T00:34:14;96855.59;;;15.62;90.29
6668;BME280;3370;47.712;9.082;2023-05-23T00:36:42;96855.59;;;15.62;89.92
6668;BME280;3370;47.712;9.082;2023-05-23T00:39:08;96863.47;;;15.61;89.97
6668;BME280;3370;47.712;9.082;2023-05-23T00:41:34;96860.88;;;15.61;90.13
6668;BME280;3370;47.712;9.082;2023-05-23T00:44:03;96863.72;;;15.58;90.50
6668;BME280;3370;47.712;9.082;2023-05-23T00:46:31;96857.69;;;15.57;90.44
6668;BME280;3370;47.712;9.082;2023-05-23T00:48:57;96859.97;;;15.62;90.64
6668;BME280;3370;47.712;9.082;2023-05-23T00:51:22;96862.88;;;15.70;89.67
6668;BME280;3370;47.712;9.082;2023-05-23T00:53:49;96861.50;;;15.64;89.55
6668;BME280;3370;47.712;9.082;2023-05-23T00:56:15;96865.97;;;15.49;91.09
6668;BME280;3370;47.712;9.082;2023-05-23T00:58:41;96861.75;;;15.48;91.50
6668;BME280;3370;47.712;9.082;2023-05-23T01:01:07;96868.38;;;15.52;91.81
6668;BME280;3370;47.712;9.082;2023-05-23T01:03:33;96862.56;;;15.49;92.01
6668;BME280;3370;47.712;9.082;2023-05-23T01:05:58;96863.50;;;15.35;92.36
6668;BME280;3370;47.712;9.082;2023-05-23T01:08:24;96860.19;;;15.46;92.05
6668;BME280;3370;47.712;9.082;2023-05-23T01:10:50;96861.41;;;15.53;91.49
6668;BME280;3370;47.712;9.082;2023-05-23T01:13:40;96852.94;;;15.51;91.08
6668;BME280;3370;47.712;9.082;2023-05-23T01:16:13;96863.72;;;15.32;92.95
6668;BME280;3370;47.712;9.082;2023-05-23T01:22:09;96863.81;;;15.18;93.79
6668;BME280;3370;47.712;9.082;2023-05-23T01:24:53;96864.53;;;15.20;93.39
6668;BME280;3370;47.712;9.082;2023-05-23T01:29:53;96863.03;;;15.03;95.91
6668;BME280;3370;47.712;9.082;2023-05-23T01:32:23;96867.31;;;15.17;95.53
6668;BME280;3370;47.712;9.082;2023-05-23T01:34:52;96868.38;;;15.14;94.89
6668;BME280;3370;47.712;9.082;2023-05-23T01:37:18;96871.34;;;15.08;95.76
6668;BME280;3370;47.712;9.082;2023-05-23T01:39:45;96874.03;;;15.06;96.17
6668;BME280;3370;47.712;9.082;2023-05-23T01:42:12;96871.78;;;15.14;94.99
6668;BME280;3370;47.712;9.082;2023-05-23T01:44:38;96875.72;;;15.20;94.87
6668;BME280;3370;47.712;9.082;2023-05-23T01:47:07;96874.28;;;15.29;94.26
6668;BME280;3370;47.712;9.082;2023-05-23T01:49:34;96873.84;;;15.09;95.34
6668;BME280;3370;47.712;9.082;2023-05-23T01:52:01;96869.25;;;15.00;97.10
6668;BME280;3370;47.712;9.082;2023-05-23T01:54:28;96875.88;;;14.91;97.56
6668;BME280;3370;47.712;9.082;2023-05-23T01:56:56;96871.94;;;14.99;97.44
6668;BME280;3370;47.712;9.082;2023-05-23T01:59:22;96871.03;;;15.00;96.33
6668;BME280;3370;47.712;9.082;2023-05-23T02:01:48;96879.50;;;14.89;97.11
6668;BME280;3370;47.712;9.082;2023-05-23T02:04:14;96884.22;;;14.82;98.22
6668;BME280;3370;47.712;9.082;2023-05-23T02:06:40;96876.56;;;14.81;98.89
6668;BME280;3370;47.712;9.082;2023-05-23T02:09:07;96878.56;;;14.90;96.88
6668;BME280;3370;47.712;9.082;2023-05-23T02:11:34;96878.44;;;14.79;96.89
6668;BME280;3370;47.712;9.082;2023-05-23T02:14:00;96873.25;;;14.79;98.06
6668;BME280;3370;47.712;9.082;2023-05-23T02:16:27;96875.84;;;14.79;97.90
6668;BME280;3370;47.712;9.082;2023-05-23T02:18:53;96877.41;;;14.81;97.13
6668;BME280;3370;47.712;9.082;2023-05-23T02:21:22;96875.41;;;14.72;97.80
6668;BME280;3370;47.712;9.082;2023-05-23T02:23:48;96883.28;;;14.70;98.16
6668;BME280;3370;47.712;9.082;2023-05-23T02:26:14;96878.97;;;14.84;97.48
6668;BME280;3370;47.712;9.082;2023-05-23T02:28:40;96881.00;;;14.79;96.88
6668;BME280;3370;47.712;9.082;2023-05-23T02:31:06;96888.75;;;14.66;98.34
6668;BME280;3370;47.712;9.082;2023-05-23T02:33:32;96888.41;;;14.57;99.28
6668;BME280;3370;47.712;9.082;2023-05-23T02:35:58;96896.44;;;14.53;99.88
6668;BME280;3370;47.712;9.082;2023-05-23T02:38:23;96901.22;;;14.59;98.83
6668;BME280;3370;47.712;9.082;2023-05-23T02:40:51;96897.97;;;14.55;99.37
6668;BME280;3370;47.712;9.082;2023-05-23T02:43:18;96894.56;;;14.55;99.29
6668;BME280;3370;47.712;9.082;2023-05-23T02:45:44;96890.53;;;14.51;99.10
6668;BME280;3370;47.712;9.082;2023-05-23T02:48:10;96898.38;;;14.49;98.92
6668;BME280;3370;47.712;9.082;2023-05-23T02:50:36;96898.28;;;14.51;99.27
6668;BME280;3370;47.712;9.082;2023-05-23T02:53:02;96894.97;;;14.49;99.05
6668;BME280;3370;47.712;9.082;2023-05-23T02:55:29;96899.69;;;14.42;99.55
6668;BME280;3370;47.712;9.082;2023-05-23T02:57:56;96893.13;;;14.51;98.26
6668;BME280;3370;47.712;9.082;2023-05-23T03:00:24;96900.78;;;14.52;97.51
6668;BME280;3370;47.712;9.082;2023-05-23T03:02:50;96898.47;;;14.62;96.55
6668;BME280;3370;47.712;9.082;2023-05-23T03:05:16;96901.72;;;14.37;98.03
6668;BME280;3370;47.712;9.082;2023-05-23T03:07:41;96908.50;;;14.25;99.98
6668;BME280;3370;47.712;9.082;2023-05-23T03:10:09;96906.75;;;14.26;100.00
6668;BME280;3370;47.712;9.082;2023-05-23T03:12:35;96899.38;;;14.19;98.43
6668;BME280;3370;47.712;9.082;2023-05-23T03:15:01;96909.63;;;14.07;100.00
6668;BME280;3370;47.712;9.082;2023-05-23T03:17:27;96911.69;;;14.02;100.00
6668;BME280;3370;47.712;9.082;2023-05-23T03:19:53;96911.88;;;13.98;100.00
6668;BME280;3370;47.712;9.082;2023-05-23T03:22:19;96909.19;;;14.00;100.00
6668;BME280;3370;47.712;9.082;2023-05-23T03:24:45;96911.69;;;14.02;100.00
6668;BME280;3370;47.712;9.082;2023-05-23T03:27:11;96906.59;;;14.00;100.00
6668;BME280;3370;47.712;9.082;2023-05-23T03:29:36;96915.81;;;14.04;100.00
6668;BME280;3370;47.712;9.082;2023-05-23T03:32:02;96913.16;;;14.06;100.00
6668;BME280;3370;47.712;9.082;2023-05-23T03:34:28;96915.66;;;14.07;100.00
6668;BME280;3370;47.712;9.082;2023-05-23T03:36:54;96913.34;;;14.03;100.00
6668;BME280;3370;47.712;9.082;2023-05-23T03:39:20;96917.50;;;14.05;100.00
6668;BME280;3370;47.712;9.082;2023-05-23T03:41:47;96924.59;;;14.16;99.07
6668;BME280;3370;47.712;9.082;2023-05-23T03:44:13;96922.28;;;14.11;98.79
6668;BME280;3370;47.712;9.082;2023-05-23T03:46:39;96920.09;;;14.05;99.88
6668;BME280;3370;47.712;9.082;2023-05-23T03:49:04;96924.31;;;14.06;100.00
6668;BME280;3370;47.712;9.082;2023-05-23T03:51:30;96923.50;;;14.06;100.00
6668;BME280;3370;47.712;9.082;2023-05-23T03:53:56;96932.06;;;14.06;100.00
6668;BME280;3370;47.712;9.082;2023-05-23T03:56:22;96934.19;;;14.14;100.00
6668;BME280;3370;47.712;9.082;2023-05-23T03:58:48;96942.59;;;14.17;100.00
6668;BME280;3370;47.712;9.082;2023-05-23T04:01:13;96942.22;;;14.24;100.00
6668;BME280;3370;47.712;9.082;2023-05-23T04:03:39;96935.78;;;14.16;100.00
6668;BME280;3370;47.712;9.082;2023-05-23T04:06:05;96941.03;;;14.15;100.00
6668;BME280;3370;47.712;9.082;2023-05-23T04:08:31;96938.53;;;14.13;100.00
6668;BME280;3370;47.712;9.082;2023-05-23T04:11:01;96939.72;;;14.22;100.00
6668;BME280;3370;47.712;9.082;2023-05-23T04:13:27;96938.59;;;14.26;100.00
6668;BME280;3370;47.712;9.082;2023-05-23T04:15:55;96946.00;;;14.32;100.00
6668;BME280;3370;47.712;9.082;2023-05-23T04:18:21;96938.75;;;14.37;100.00
6668;BME280;3370;47.712;9.082;2023-05-23T04:20:48;96948.75;;;14.44;100.00
6668;BME280;3370;47.712;9.082;2023-05-23T04:23:14;96945.41;;;14.56;100.00
6668;BME280;3370;47.712;9.082;2023-05-23T04:25:40;96934.78;;;14.61;100.00
6668;BME280;3370;47.712;9.082;2023-05-23T04:28:05;96943.72;;;14.55;100.00
6668;BME280;3370;47.712;9.082;2023-05-23T04:30:35;96942.81;;;14.56;100.00
6668;BME280;3370;47.712;9.082;2023-05-23T04:33:00;96944.75;;;14.67;100.00
6668;BME280;3370;47.712;9.082;2023-05-23T04:35:26;96946.31;;;14.69;100.00
6668;BME280;3370;47.712;9.082;2023-05-23T04:37:58;96952.31;;;14.70;100.00
6668;BME280;3370;47.712;9.082;2023-05-23T04:40:24;96950.94;;;14.64;100.00
6668;BME280;3370;47.712;9.082;2023-05-23T04:42:50;96946.81;;;14.62;100.00
6668;BME280;3370;47.712;9.082;2023-05-23T04:45:17;96954.25;;;14.66;100.00
6668;BME280;3370;47.712;9.082;2023-05-23T04:47:47;96954.72;;;14.73;100.00
6668;BME280;3370;47.712;9.082;2023-05-23T04:50:13;96951.84;;;14.78;100.00
6668;BME280;3370;47.712;9.082;2023-05-23T04:52:43;96961.34;;;14.77;100.00
6668;BME280;3370;47.712;9.082;2023-05-23T04:55:08;96958.06;;;14.88;100.00
6668;BME280;3370;47.712;9.082;2023-05-23T04:57:34;96960.16;;;14.95;100.00
6668;BME280;3370;47.712;9.082;2023-05-23T05:00:00;96956.03;;;14.93;100.00
6668;BME280;3370;47.712;9.082;2023-05-23T05:02:26;96968.88;;;14.94;100.00
6668;BME280;3370;47.712;9.082;2023-05-23T05:04:52;96958.13;;;15.01;100.00
6668;BME280;3370;47.712;9.082;2023-05-23T05:07:18;96956.88;;;15.06;100.00
6668;BME280;3370;47.712;9.082;2023-05-23T05:09:44;96956.50;;;15.12;100.00
6668;BME280;3370;47.712;9.082;2023-05-23T05:12:10;96953.50;;;15.19;100.00
6668;BME280;3370;47.712;9.082;2023-05-23T05:14:36;96956.31;;;15.16;100.00
6668;BME280;3370;47.712;9.082;2023-05-23T05:17:02;96965.31;;;15.23;100.00
6668;BME280;3370;47.712;9.082;2023-05-23T05:19:28;96960.50;;;15.31;100.00
6668;BME280;3370;47.712;9.082;2023-05-23T05:21:54;96966.09;;;15.38;100.00
6668;BME280;3370;47.712;9.082;2023-05-23T05:24:20;96972.53;;;15.32;100.00
6668;BME280;3370;47.712;9.082;2023-05-23T05:26:47;96970.44;;;15.37;100.00
6668;BME280;3370;47.712;9.082;2023-05-23T05:29:13;96979.16;;;15.36;100.00
6668;BME280;3370;47.712;9.082;2023-05-23T05:31:39;96973.81;;;15.52;100.00
6668;BME280;3370;47.712;9.082;2023-05-23T05:34:05;96981.66;;;15.50;100.00
6668;BME280;3370;47.712;9.082;2023-05-23T05:36:31;96986.63;;;15.53;100.00
6668;BME280;3370;47.712;9.082;2023-05-23T05:38:57;96985.53;;;15.58;100.00
6668;BME280;3370;47.712;9.082;2023-05-23T05:41:22;96984.72;;;15.70;100.00
6668;BME280;3370;47.712;9.082;2023-05-23T05:43:50;96983.03;;;15.69;100.00
6668;BME280;3370;47.712;9.082;2023-05-23T05:46:16;96986.00;;;15.77;100.00
6668;BME280;3370;47.712;9.082;2023-05-23T05:48:41;96981.41;;;15.81;100.00
6668;BME280;3370;47.712;9.082;2023-05-23T05:51:07;96981.09;;;15.85;100.00
6668;BME280;3370;47.712;9.082;2023-05-23T05:53:33;96982.16;;;16.08;100.00
6668;BME280;3370;47.712;9.082;2023-05-23T05:55:59;96977.88;;;15.82;100.00
6668;BME280;3370;47.712;9.082;2023-05-23T05:58:25;96976.63;;;15.75;100.00
6668;BME280;3370;47.712;9.082;2023-05-23T06:00:50;96983.94;;;15.68;100.00
6668;BME280;3370;47.712;9.082;2023-05-23T06:03:17;96988.50;;;15.51;100.00
6668;BME280;3370;47.712;9.082;2023-05-23T06:05:43;96988.72;;;15.48;100.00
6668;BME280;3370;47.712;9.082;2023-05-23T06:08:09;96989.31;;;15.39;100.00
6668;BME280;3370;47.712;9.082;2023-05-23T06:10:37;96996.16;;;15.40;100.00
6668;BME280;3370;47.712;9.082;2023-05-23T06:13:03;96994.81;;;15.47;100.00
6668;BME280;3370;47.712;9.082;2023-05-23T06:15:29;96994.53;;;15.52;100.00
6668;BME280;3370;47.712;9.082;2023-05-23T06:17:55;96997.13;;;15.52;100.00
6668;BME280;3370;47.712;9.082;2023-05-23T06:20:21;96988.00;;;15.46;100.00
6668;BME280;3370;47.712;9.082;2023-05-23T06:22:46;96991.44;;;15.60;100.00
6668;BME280;3370;47.712;9.082;2023-05-23T06:25:12;96985.25;;;15.75;100.00
6668;BME280;3370;47.712;9.082;2023-05-23T06:27:38;96988.97;;;15.84;100.00
6668;BME280;3370;47.712;9.082;2023-05-23T06:30:05;96990.03;;;16.07;100.00
6668;BME280;3370;47.712;9.082;2023-05-23T06:32:31;96986.69;;;16.18;100.00
6668;BME280;3370;47.712;9.082;2023-05-23T06:34:56;96987.59;;;16.29;100.00
6668;BME280;3370;47.712;9.082;2023-05-23T06:37:22;96983.44;;;16.40;100.00
6668;BME280;3370;47.712;9.082;2023-05-23T06:39:48;96987.28;;;16.47;100.00
6668;BME280;3370;47.712;9.082;2023-05-23T06:42:14;96987.66;;;16.66;100.00
6668;BME280;3370;47.712;9.082;2023-05-23T06:44:40;96988.41;;;16.93;100.00
6668;BME280;3370;47.712;9.082;2023-05-23T06:47:06;96989.88;;;16.84;100.00
6668;BME280;3370;47.712;9.082;2023-05-23T06:49:32;96985.91;;;16.91;100.00
6668;BME280;3370;47.712;9.082;2023-05-23T06:51:58;96990.03;;;17.07;100.00
6668;BME280;3370;47.712;9.082;2023-05-23T06:54:23;96985.00;;;17.28;100.00
6668;BME280;3370;47.712;9.082;2023-05-23T06:56:49;96993.66;;;17.04;99.89
6668;BME280;3370;47.712;9.082;2023-05-23T06:59:15;96993.03;;;16.63;99.73
6668;BME280;3370;47.712;9.082;2023-05-23T07:01:41;96992.84;;;16.66;100.00
6668;BME280;3370;47.712;9.082;2023-05-23T07:04:06;96991.59;;;16.59;100.00
6668;BME280;3370;47.712;9.082;2023-05-23T07:06:34;96995.28;;;16.81;98.95
6668;BME280;3370;47.712;9.082;2023-05-23T07:09:01;96996.75;;;17.09;99.46
6668;BME280;3370;47.712;9.082;2023-05-23T07:11:26;96999.28;;;17.22;98.05
6668;BME280;3370;47.712;9.082;2023-05-23T07:13:52;97007.69;;;17.50;97.63
6668;BME280;3370;47.712;9.082;2023-05-23T07:16:18;97007.00;;;17.59;97.72
6668;BME280;3370;47.712;9.082;2023-05-23T07:18:43;96999.91;;;17.61;96.38
6668;BME280;3370;47.712;9.082;2023-05-23T07:21:09;97010.81;;;17.77;96.14
6668;BME280;3370;47.712;9.082;2023-05-23T07:23:35;97003.44;;;17.60;97.27
6668;BME280;3370;47.712;9.082;2023-05-23T07:26:01;96992.59;;;17.66;97.87
6668;BME280;3370;47.712;9.082;2023-05-23T07:28:27;96994.50;;;17.64;96.24
6668;BME280;3370;47.712;9.082;2023-05-23T07:30:53;96996.22;;;17.17;99.33
6668;BME280;3370;47.712;9.082;2023-05-23T07:33:21;97004.13;;;17.15;98.43
6668;BME280;3370;47.712;9.082;2023-05-23T07:35:47;97002.50;;;17.01;99.14
6668;BME280;3370;47.712;9.082;2023-05-23T07:38:13;97003.72;;;17.09;98.58
6668;BME280;3370;47.712;9.082;2023-05-23T07:40:39;96999.97;;;17.13;97.75
6668;BME280;3370;47.712;9.082;2023-05-23T07:43:05;96989.66;;;17.35;98.19
6668;BME280;3370;47.712;9.082;2023-05-23T07:45:30;96999.59;;;17.41;96.97
6668;BME280;3370;47.712;9.082;2023-05-23T07:47:56;97005.88;;;17.39;95.16
6668;BME280;3370;47.712;9.082;2023-05-23T07:50:22;97007.09;;;17.46;95.25
6668;BME280;3370;47.712;9.082;2023-05-23T07:52:48;97004.69;;;17.43;95.65
6668;BME280;3370;47.712;9.082;2023-05-23T07:55:15;96996.75;;;17.33;95.64
6668;BME280;3370;47.712;9.082;2023-05-23T07:57:41;97005.50;;;17.43;94.66
6668;BME280;3370;47.712;9.082;2023-05-23T08:00:08;96999.69;;;17.64;93.49
6668;BME280;3370;47.712;9.082;2023-05-23T08:02:34;97005.63;;;17.77;92.62
6668;BME280;3370;47.712;9.082;2023-05-23T08:05:01;96998.31;;;17.82;92.15
6668;BME280;3370;47.712;9.082;2023-05-23T08:07:27;96993.72;;;17.86;91.21
6668;BME280;3370;47.712;9.082;2023-05-23T08:09:52;96999.34;;;17.80;89.81
6668;BME280;3370;47.712;9.082;2023-05-23T08:12:18;97001.66;;;18.07;87.85
6668;BME280;3370;47.712;9.082;2023-05-23T08:14:44;97000.63;;;17.98;85.79
6668;BME280;3370;47.712;9.082;2023-05-23T08:17:11;97008.06;;;18.14;85.89
6668;BME280;3370;47.712;9.082;2023-05-23T08:19:37;97001.22;;;18.13;86.96
6668;BME280;3370;47.712;9.082;2023-05-23T08:22:04;96997.78;;;18.47;85.55
6668;BME280;3370;47.712;9.082;2023-05-23T08:24:30;97003.09;;;18.34;84.77
6668;BME280;3370;47.712;9.082;2023-05-23T08:26:56;97005.22;;;18.17;83.08
6668;BME280;3370;47.712;9.082;2023-05-23T08:29:23;97006.91;;;18.30;84.42
6668;BME280;3370;47.712;9.082;2023-05-23T08:31:49;97003.56;;;18.05;84.46
6668;BME280;3370;47.712;9.082;2023-05-23T08:34:15;97009.03;;;18.25;84.29
6668;BME280;3370;47.712;9.082;2023-05-23T08:36:40;97006.41;;;18.36;84.16
6668;BME280;3370;47.712;9.082;2023-05-23T08:39:07;97002.63;;;18.51;82.69
6668;BME280;3370;47.712;9.082;2023-05-23T08:41:34;97012.81;;;18.32;82.49
6668;BME280;3370;47.712;9.082;2023-05-23T08:44:00;97007.59;;;18.32;82.55
6668;BME280;3370;47.712;9.082;2023-05-23T08:46:26;97017.78;;;18.46;82.53
6668;BME280;3370;47.712;9.082;2023-05-23T08:48:54;97014.22;;;18.70;80.23
6668;BME280;3370;47.712;9.082;2023-05-23T08:51:25;97014.91;;;18.83;80.93
6668;BME280;3370;47.712;9.082;2023-05-23T08:53:53;97015.28;;;18.78;80.20
6668;BME280;3370;47.712;9.082;2023-05-23T08:56:22;97017.53;;;18.94;78.49
6668;BME280;3370;47.712;9.082;2023-05-23T08:58:49;97018.34;;;18.72;78.82
6668;BME280;3370;47.712;9.082;2023-05-23T09:01:18;97019.19;;;18.73;77.84
6668;BME280;3370;47.712;9.082;2023-05-23T09:03:45;97022.97;;;18.80;79.05
6668;BME280;3370;47.712;9.082;2023-05-23T09:06:10;97016.59;;;18.84;77.97
6668;BME280;3370;47.712;9.082;2023-05-23T09:08:37;97017.75;;;18.91;77.64
6668;BME280;3370;47.712;9.082;2023-05-23T09:11:04;97020.81;;;18.74;77.46
6668;BME280;3370;47.712;9.082;2023-05-23T09:13:32;97019.44;;;18.81;75.42
6668;BME280;3370;47.712;9.082;2023-05-23T09:16:09;97028.41;;;18.88;78.74
6668;BME280;3370;47.712;9.082;2023-05-23T09:18:40;97020.47;;;18.90;76.38
6668;BME280;3370;47.712;9.082;2023-05-23T09:21:12;97019.41;;;18.92;76.00
6668;BME280;3370;47.712;9.082;2023-05-23T09:23:39;97021.78;;;18.95;78.52
6668;BME280;3370;47.712;9.082;2023-05-23T09:26:08;97016.28;;;19.42;77.00
6668;BME280;3370;47.712;9.082;2023-05-23T09:28:37;97015.53;;;19.84;73.29
6668;BME280;3370;47.712;9.082;2023-05-23T09:31:07;97015.22;;;19.66;72.74
6668;BME280;3370;47.712;9.082;2023-05-23T09:33:45;97018.25;;;19.82;75.67
6668;BME280;3370;47.712;9.082;2023-05-23T09:36:12;97018.31;;;19.92;74.40
6668;BME280;3370;47.712;9.082;2023-05-23T09:38:39;97019.69;;;20.17;71.74
6668;BME280;3370;47.712;9.082;2023-05-23T09:41:06;97012.41;;;20.21;71.74
6668;BME280;3370;47.712;9.082;2023-05-23T09:43:32;97018.28;;;20.34;71.74
6668;BME280;3370;47.712;9.082;2023-05-23T09:46:09;97009.31;;;20.27;70.24
6668;BME280;3370;47.712;9.082;2023-05-23T09:48:36;97021.03;;;19.90;71.56
6668;BME280;3370;47.712;9.082;2023-05-23T09:51:09;97013.44;;;20.08;71.38
6668;BME280;3370;47.712;9.082;2023-05-23T09:53:35;97015.28;;;20.18;73.21
6668;BME280;3370;47.712;9.082;2023-05-23T09:56:04;97009.13;;;20.19;72.13
6668;BME280;3370;47.712;9.082;2023-05-23T09:58:32;97011.59;;;20.20;70.70
6668;BME280;3370;47.712;9.082;2023-05-23T10:01:00;97004.78;;;20.29;69.81
6668;BME280;3370;47.712;9.082;2023-05-23T10:03:43;97007.03;;;20.43;70.78
6668;BME280;3370;47.712;9.082;2023-05-23T10:06:24;97002.19;;;20.39;67.63
6668;BME280;3370;47.712;9.082;2023-05-23T10:09:03;96994.69;;;20.55;68.73
6668;BME280;3370;47.712;9.082;2023-05-23T10:14:25;96976.81;;;20.51;69.02
6668;BME280;3370;47.712;9.082;2023-05-23T10:17:18;96984.63;;;20.81;70.71
6668;BME280;3370;47.712;9.082;2023-05-23T10:22:20;96981.72;;;20.84;67.62
6668;BME280;3370;47.712;9.082;2023-05-23T10:24:47;96983.69;;;20.52;70.80
6668;BME280;3370;47.712;9.082;2023-05-23T10:27:14;96978.00;;;20.77;67.53
6668;BME280;3370;47.712;9.082;2023-05-23T10:29:40;96975.03;;;21.21;67.97
6668;BME280;3370;47.712;9.082;2023-05-23T10:32:06;96967.34;;;21.58;68.35
6668;BME280;3370;47.712;9.082;2023-05-23T10:35:05;96962.09;;;21.58;66.05
6668;BME280;3370;47.712;9.082;2023-05-23T10:37:48;96966.06;;;21.14;66.52
6668;BME280;3370;47.712;9.082;2023-05-23T10:46:14;96967.16;;;21.79;64.32
6668;BME280;3370;47.712;9.082;2023-05-23T10:48:42;96973.66;;;21.46;63.85
6668;BME280;3370;47.712;9.082;2023-05-23T10:51:13;96975.19;;;21.49;64.26
6668;BME280;3370;47.712;9.082;2023-05-23T10:53:42;96971.19;;;21.64;65.61
6668;BME280;3370;47.712;9.082;2023-05-23T10:56:18;96972.44;;;21.60;63.37
6668;BME280;3370;47.712;9.082;2023-05-23T10:58:53;96959.84;;;21.83;63.60
6668;BME280;3370;47.712;9.082;2023-05-23T11:01:19;96956.78;;;21.97;64.68
6668;BME280;3370;47.712;9.082;2023-05-23T11:06:43;96960.41;;;21.77;67.03
6668;BME280;3370;47.712;9.082;2023-05-23T11:09:18;96953.38;;;21.87;64.00
6668;BME280;3370;47.712;9.082;2023-05-23T11:12:00;96950.53;;;22.46;62.14
6668;BME280;3370;47.712;9.082;2023-05-23T11:14:51;96957.09;;;23.41;62.49
6668;BME280;3370;47.712;9.082;2023-05-23T11:17:30;96954.56;;;24.02;59.23
6668;BME280;3370;47.712;9.082;2023-05-23T11:20:05;96965.78;;;24.97;54.57
6668;BME280;3370;47.712;9.082;2023-05-23T11:22:34;96966.47;;;25.16;54.64
6668;BME280;3370;47.712;9.082;2023-05-23T11:25:05;96960.59;;;25.30;54.84
6668;BME280;3370;47.712;9.082;2023-05-23T11:27:34;96960.59;;;25.30;53.65
6668;BME280;3370;47.712;9.082;2023-05-23T11:30:12;96951.69;;;25.56;53.71
6668;BME280;3370;47.712;9.082;2023-05-23T11:32:38;96962.09;;;26.30;51.12
6668;BME280;3370;47.712;9.082;2023-05-23T11:35:09;96960.88;;;26.88;49.94
6668;BME280;3370;47.712;9.082;2023-05-23T11:37:37;96961.13;;;26.70;49.38
6668;BME280;3370;47.712;9.082;2023-05-23T11:43:06;96972.22;;;25.85;50.21
6668;BME280;3370;47.712;9.082;2023-05-23T11:45:35;96972.13;;;25.62;51.18
6668;BME280;3370;47.712;9.082;2023-05-23T11:48:09;96971.44;;;25.27;51.58
6668;BME280;3370;47.712;9.082;2023-05-23T11:50:52;96968.38;;;24.89;52.45
6668;BME280;3370;47.712;9.082;2023-05-23T11:53:21;96965.41;;;24.67;53.40
6668;BME280;3370;47.712;9.082;2023-05-23T11:55:55;96959.78;;;24.71;54.81
6668;BME280;3370;47.712;9.082;2023-05-23T12:01:08;96950.31;;;26.09;52.29
6668;BME280;3370;47.712;9.082;2023-05-23T12:03:44;96954.78;;;26.88;51.16
6668;BME280;3370;47.712;9.082;2023-05-23T12:06:14;96949.63;;;27.64;47.59
6668;BME280;3370;47.712;9.082;2023-05-23T12:08:40;96940.53;;;27.81;45.62
6668;BME280;3370;47.712;9.082;2023-05-23T12:11:06;96937.78;;;27.60;46.30
6668;BME280;3370;47.712;9.082;2023-05-23T12:13:32;96933.09;;;27.47;46.99
6668;BME280;3370;47.712;9.082;2023-05-23T12:16:00;96925.22;;;27.77;45.87
6668;BME280;3370;47.712;9.082;2023-05-23T12:18:31;96914.59;;;28.15;44.58
6668;BME280;3370;47.712;9.082;2023-05-23T12:21:02;96911.28;;;27.83;45.50
6668;BME280;3370;47.712;9.082;2023-05-23T12:23:30;96918.56;;;27.28;45.71
6668;BME280;3370;47.712;9.082;2023-05-23T12:25:57;96917.66;;;26.66;47.14
6668;BME280;3370;47.712;9.082;2023-05-23T12:28:40;96925.53;;;26.27;47.84
6668;BME280;3370;47.712;9.082;2023-05-23T12:31:17;96934.56;;;25.93;47.73
6668;BME280;3370;47.712;9.082;2023-05-23T12:33:44;96930.31;;;25.42;47.58
6668;BME280;3370;47.712;9.082;2023-05-23T12:36:23;96945.06;;;24.86;49.04
6668;BME280;3370;47.712;9.082;2023-05-23T12:38:49;96950.03;;;24.12;51.52
6668;BME280;3370;47.712;9.082;2023-05-23T12:41:17;96956.38;;;23.57;52.65
6668;BME280;3370;47.712;9.082;2023-05-23T12:43:51;96967.75;;;22.76;53.86
6668;BME280;3370;47.712;9.082;2023-05-23T12:46:19;96971.00;;;22.60;56.13
6668;BME280;3370;47.712;9.082;2023-05-23T12:48:45;96982.06;;;21.59;62.51
6668;BME280;3370;47.712;9.082;2023-05-23T12:51:15;96983.66;;;20.73;69.01
6668;BME280;3370;47.712;9.082;2023-05-23T12:53:41;96986.78;;;20.05;71.85
6668;BME280;3370;47.712;9.082;2023-05-23T12:56:07;96991.72;;;19.56;75.24
6668;BME280;3370;47.712;9.082;2023-05-23T12:58:33;96984.28;;;19.19;79.92
6668;BME280;3370;47.712;9.082;2023-05-23T13:01:01;96982.69;;;19.28;82.79
6668;BME280;3370;47.712;9.082;2023-05-23T13:03:28;96983.22;;;18.55;82.42
6668;BME280;3370;47.712;9.082;2023-05-23T13:05:57;96991.72;;;18.69;89.41
6668;BME280;3370;47.712;9.082;2023-05-23T13:08:24;96986.25;;;18.94;90.13
6668;BME280;3370;47.712;9.082;2023-05-23T13:10:50;96985.09;;;19.20;93.92
6668;BME280;3370;47.712;9.082;2023-05-23T13:13:17;96979.16;;;19.18;92.87
6668;BME280;3370;47.712;9.082;2023-05-23T13:15:43;96975.81;;;19.27;94.67
6668;BME280;3370;47.712;9.082;2023-05-23T13:18:09;96974.25;;;19.35;95.75
6668;BME280;3370;47.712;9.082;2023-05-23T13:20:34;96971.84;;;19.44;96.77
6668;BME280;3370;47.712;9.082;2023-05-23T13:23:00;96981.31;;;19.45;96.12
6668;BME280;3370;47.712;9.082;2023-05-23T13:25:27;96983.09;;;19.44;96.23
6668;BME280;3370;47.712;9.082;2023-05-23T13:27:53;96973.38;;;19.25;92.59
6668;BME280;3370;47.712;9.082;2023-05-23T13:30:21;96974.75;;;19.29;94.80
6668;BME280;3370;47.712;9.082;2023-05-23T13:32:47;96974.75;;;19.29;95.87
6668;BME280;3370;47.712;9.082;2023-05-23T13:35:12;96966.25;;;19.27;93.93
6668;BME280;3370;47.712;9.082;2023-05-23T13:37:38;96976.91;;;19.24;95.05
6668;BME280;3370;47.712;9.082;2023-05-23T13:40:05;96971.13;;;19.21;95.24
6668;BME280;3370;47.712;9.082;2023-05-23T13:42:31;96976.50;;;19.29;94.73
6668;BME280;3370;47.712;9.082;2023-05-23T13:44:57;96975.81;;;19.27;93.74
6668;BME280;3370;47.712;9.082;2023-05-23T13:47:22;96978.81;;;19.22;93.86
6668;BME280;3370;47.712;9.082;2023-05-23T13:49:48;96978.63;;;19.35;94.85